Time;durP1;ratioP1;P1;durP2;ratioP2;P2;SDS_P1;SDS_P2;PMS_P1;PMS_P2;Temp;Humidity;BMP_temperature;BMP_pressure;BME280_temperature;BME280_humidity;BME280_pressure;Samples;Min_cycle;Max_cycle;Signal;HPM_P1;HPM_P2
2022/11/12 00:00:59;;;;;;;;;;;6.20;99.90;;;;;;5025368;28;19988;-94
2022/11/12 00:03:25;;;;;;;;;;;6.20;99.90;;;;;;5028728;28;20028;-94
2022/11/12 00:05:52;;;;;;;;;;;6.20;99.90;;;;;;5036863;28;19929;-94
2022/11/12 00:08:17;;;;;;;;;;;6.20;99.90;;;;;;5011038;28;19985;-95
2022/11/12 00:10:43;;;;;;;;;;;6.20;99.90;;;;;;5012475;28;19925;-95
2022/11/12 00:13:09;;;;;;;;;;;6.10;99.90;;;;;;5045202;28;19925;-94
2022/11/12 00:15:34;;;;;;;;;;;6.10;99.90;;;;;;5022483;28;19983;-95
2022/11/12 00:18:00;;;;;;;;;;;6.10;99.90;;;;;;5046460;28;19925;-94
2022/11/12 00:20:26;;;;;;;;;;;6.10;99.90;;;;;;5054050;28;19920;-93
2022/11/12 00:22:51;;;;;;;;;;;6.10;99.90;;;;;;5058355;28;19913;-93
2022/11/12 00:25:17;;;;;;;;;;;6.00;99.90;;;;;;5053611;28;19920;-93
2022/11/12 00:27:42;;;;;;;;;;;6.00;99.90;;;;;;5042320;28;19920;-94
2022/11/12 00:30:08;;;;;;;;;;;6.00;99.90;;;;;;5018799;28;19925;-93
2022/11/12 00:32:35;;;;;;;;;;;6.00;99.90;;;;;;5033655;28;19925;-94
2022/11/12 00:35:01;;;;;;;;;;;5.90;99.90;;;;;;5038069;28;19928;-93
2022/11/12 00:37:26;;;;;;;;;;;5.80;99.90;;;;;;5018609;28;19988;-93
2022/11/12 00:39:52;;;;;;;;;;;5.90;99.90;;;;;;5021858;28;19925;-95
2022/11/12 00:42:17;;;;;;;;;;;5.80;99.90;;;;;;5053232;28;19944;-93
2022/11/12 00:44:43;;;;;;;;;;;5.80;99.90;;;;;;5018474;28;20353;-95
2022/11/12 00:47:08;;;;;;;;;;;5.90;99.90;;;;;;5061044;28;19975;-94
2022/11/12 00:49:34;;;;;;;;;;;5.90;99.90;;;;;;5017624;28;20428;-94
2022/11/12 00:52:00;;;;;;;;;;;5.90;99.90;;;;;;5046403;28;19936;-94
2022/11/12 00:54:25;;;;;;;;;;;5.90;99.90;;;;;;5028901;28;19925;-95
2022/11/12 00:56:51;;;;;;;;;;;5.90;99.90;;;;;;5044342;28;19974;-95
2022/11/12 00:59:16;;;;;;;;;;;5.90;99.90;;;;;;5053622;28;20000;-94
2022/11/12 01:01:42;;;;;;;;;;;5.90;99.90;;;;;;5045370;28;20408;-94
2022/11/12 01:04:07;;;;;;;;;;;5.90;99.90;;;;;;5042455;28;19925;-95
2022/11/12 01:06:33;;;;;;;;;;;6.10;99.90;;;;;;5012926;28;19925;-94
2022/11/12 01:08:59;;;;;;;;;;;5.90;99.90;;;;;;5046600;28;19958;-93
2022/11/12 01:11:28;;;;;;;;;;;5.90;99.90;;;;;;5033990;28;19925;-94
2022/11/12 01:13:54;;;;;;;;;;;5.80;99.90;;;;;;5053595;28;19924;-93
2022/11/12 01:16:20;;;;;;;;;;;5.80;99.90;;;;;;5044472;28;19993;-95
2022/11/12 01:18:46;;;;;;;;;;;5.80;99.90;;;;;;5044061;28;20017;-93
2022/11/12 01:21:12;;;;;;;;;;;5.80;99.90;;;;;;5044830;28;19925;-95
2022/11/12 01:23:40;;;;;;;;;;;5.80;99.90;;;;;;5034642;28;19964;-95
2022/11/12 01:26:06;;;;;;;;;;;5.80;99.90;;;;;;5043307;28;19929;-94
2022/11/12 01:28:32;;;;;;;;;;;5.90;99.90;;;;;;5054998;28;19970;-96
2022/11/12 01:31:08;;;;;;;;;;;5.70;99.90;;;;;;5063941;28;19940;-92
2022/11/12 01:33:33;;;;;;;;;;;5.70;99.90;;;;;;5042379;28;19921;-94
2022/11/12 01:36:02;;;;;;;;;;;5.70;99.90;;;;;;5038194;28;20418;-92
2022/11/12 01:38:28;;;;;;;;;;;5.10;99.90;;;;;;5065671;28;19984;-95
2022/11/12 01:40:53;;;;;;;;;;;5.70;99.90;;;;;;5060119;28;19976;-94
2022/11/12 01:43:19;;;;;;;;;;;5.70;99.90;;;;;;5026030;28;20796;-93
2022/11/12 01:45:45;;;;;;;;;;;5.70;99.90;;;;;;5052425;28;19932;-95
2022/11/12 01:48:18;;;;;;;;;;;5.70;99.90;;;;;;5030741;28;19929;-94
2022/11/12 01:50:44;;;;;;;;;;;5.60;99.90;;;;;;5034838;28;19992;-93
2022/11/12 01:53:10;;;;;;;;;;;5.80;99.90;;;;;;5026461;28;20017;-93
2022/11/12 01:55:36;;;;;;;;;;;5.70;99.90;;;;;;5042099;28;19948;-95
2022/11/12 01:58:10;;;;;;;;;;;4.80;99.90;;;;;;5036590;28;19988;-96
2022/11/12 02:00:39;;;;;;;;;;;5.60;99.90;;;;;;5050623;28;19925;-93
2022/11/12 02:03:07;;;;;;;;;;;5.60;99.90;;;;;;5055203;28;19963;-94
2022/11/12 02:05:33;;;;;;;;;;;5.60;99.90;;;;;;5060249;28;19921;-94
2022/11/12 02:07:59;;;;;;;;;;;5.60;99.90;;;;;;5052170;28;19932;-93
2022/11/12 02:10:25;;;;;;;;;;;5.60;99.90;;;;;;5033140;28;19924;-93
2022/11/12 02:15:36;;;;;;;;;;;5.50;99.90;;;;;;5064157;28;19984;-94
2022/11/12 02:18:02;;;;;;;;;;;5.50;99.90;;;;;;5051106;28;19928;-94
2022/11/12 02:20:31;;;;;;;;;;;5.50;99.90;;;;;;5043660;28;19925;-93
2022/11/12 02:22:57;;;;;;;;;;;5.40;99.90;;;;;;5029872;28;19928;-93
2022/11/12 02:25:23;;;;;;;;;;;5.40;99.90;;;;;;5014798;28;19971;-95
2022/11/12 02:27:52;;;;;;;;;;;5.40;99.90;;;;;;5051420;28;19925;-93
2022/11/12 02:30:36;;;;;;;;;;;5.40;99.90;;;;;;5055363;28;19931;-94
2022/11/12 02:33:02;;;;;;;;;;;5.30;99.90;;;;;;5052276;28;20075;-94
2022/11/12 02:35:28;;;;;;;;;;;5.30;99.90;;;;;;5053135;28;20015;-95
2022/11/12 02:37:54;;;;;;;;;;;5.30;99.90;;;;;;5030051;28;19925;-94
2022/11/12 02:40:20;;;;;;;;;;;5.20;99.90;;;;;;5066655;28;19913;-94
2022/11/12 02:42:45;;;;;;;;;;;5.20;99.90;;;;;;5041890;28;19920;-93
2022/11/12 02:45:11;;;;;;;;;;;5.20;99.90;;;;;;5040401;28;19924;-95
2022/11/12 02:47:36;;;;;;;;;;;5.20;99.90;;;;;;5036458;28;19928;-94
2022/11/12 02:50:02;;;;;;;;;;;5.30;99.90;;;;;;5045242;28;19963;-93
2022/11/12 02:52:28;;;;;;;;;;;5.30;99.90;;;;;;5032436;28;20020;-95
2022/11/12 02:54:54;;;;;;;;;;;5.20;99.90;;;;;;5046845;28;19925;-94
2022/11/12 02:57:19;;;;;;;;;;;5.20;99.90;;;;;;5031429;28;19983;-94
2022/11/12 02:59:45;;;;;;;;;;;5.10;99.90;;;;;;5038508;28;19932;-95
2022/11/12 03:02:10;;;;;;;;;;;5.10;99.90;;;;;;5026097;28;19933;-94
2022/11/12 03:04:36;;;;;;;;;;;5.10;99.90;;;;;;5016212;28;19928;-94
2022/11/12 03:07:02;;;;;;;;;;;5.00;99.90;;;;;;5054911;28;20401;-94
2022/11/12 03:09:27;;;;;;;;;;;5.00;99.90;;;;;;5017460;28;19970;-95
2022/11/12 03:11:53;;;;;;;;;;;5.00;99.90;;;;;;5014864;28;19972;-95
2022/11/12 03:14:18;;;;;;;;;;;5.00;99.90;;;;;;5035475;28;19947;-95
2022/11/12 03:16:44;;;;;;;;;;;5.00;99.90;;;;;;5039284;28;19924;-95
2022/11/12 03:19:09;;;;;;;;;;;4.90;99.90;;;;;;5024617;28;19982;-93
2022/11/12 03:21:35;;;;;;;;;;;4.90;99.90;;;;;;5044607;28;19925;-95
2022/11/12 03:24:01;;;;;;;;;;;4.90;99.90;;;;;;5042389;28;19928;-96
2022/11/12 03:26:26;;;;;;;;;;;4.80;99.90;;;;;;5048140;28;19925;-95
2022/11/12 03:28:52;;;;;;;;;;;4.80;99.90;;;;;;5052090;28;19925;-94
2022/11/12 03:31:18;;;;;;;;;;;4.80;99.90;;;;;;5024066;28;19925;-94
2022/11/12 03:33:43;;;;;;;;;;;4.80;99.90;;;;;;5058059;28;19925;-94
2022/11/12 03:36:09;;;;;;;;;;;4.80;99.90;;;;;;5030041;28;20023;-94
2022/11/12 03:38:40;;;;;;;;;;;5.10;99.90;;;;;;5030233;28;19952;-95
2022/11/12 03:41:06;;;;;;;;;;;4.70;99.90;;;;;;5021378;28;19925;-95
2022/11/12 03:43:31;;;;;;;;;;;4.70;99.90;;;;;;5043113;28;19932;-94
2022/11/12 03:45:57;;;;;;;;;;;4.80;99.90;;;;;;5033399;28;19975;-95
2022/11/12 03:48:22;;;;;;;;;;;4.80;99.90;;;;;;5018928;28;19921;-95
2022/11/12 03:50:48;;;;;;;;;;;4.70;99.90;;;;;;5056805;28;19947;-94
2022/11/12 03:53:14;;;;;;;;;;;4.70;99.90;;;;;;5036786;28;19932;-95
2022/11/12 03:55:39;;;;;;;;;;;4.70;99.90;;;;;;5036152;28;19924;-94
2022/11/12 03:58:05;;;;;;;;;;;4.70;99.90;;;;;;5032389;28;19925;-96
2022/11/12 04:00:31;;;;;;;;;;;4.70;99.90;;;;;;5054747;28;19925;-95
2022/11/12 04:02:56;;;;;;;;;;;4.70;99.90;;;;;;5030246;28;19933;-95
2022/11/12 04:08:41;;;;;;;;;;;4.70;99.90;;;;;;5044548;28;20036;-96
2022/11/12 04:11:13;;;;;;;;;;;4.70;99.90;;;;;;5034304;28;19925;-96
2022/11/12 04:13:40;;;;;;;;;;;4.60;99.90;;;;;;5056885;28;19980;-94
2022/11/12 04:21:50;;;;;;;;;;;4.50;99.90;;;;;;5042669;28;19991;-92
2022/11/12 04:27:00;;;;;;;;;;;4.40;99.90;;;;;;5036034;28;19929;-93
2022/11/12 04:32:11;;;;;;;;;;;4.40;99.90;;;;;;5044611;28;19988;-94
2022/11/12 04:34:36;;;;;;;;;;;4.40;99.90;;;;;;5035993;28;19987;-94
2022/11/12 04:37:03;;;;;;;;;;;4.40;99.90;;;;;;5060593;28;20307;-93
2022/11/12 04:39:28;;;;;;;;;;;4.40;99.90;;;;;;5046998;28;19925;-92
2022/11/12 04:47:23;;;;;;;;;;;4.40;99.90;;;;;;5043563;28;19924;-93
2022/11/12 04:49:48;;;;;;;;;;;4.30;99.90;;;;;;5028473;28;19925;-94
2022/11/12 04:52:14;;;;;;;;;;;4.30;99.90;;;;;;5025374;28;19967;-94
2022/11/12 04:54:40;;;;;;;;;;;4.30;99.90;;;;;;5042541;28;19928;-94
2022/11/12 04:57:05;;;;;;;;;;;4.30;99.90;;;;;;5044357;28;21419;-95
2022/11/12 04:59:31;;;;;;;;;;;4.40;99.90;;;;;;5039837;28;19924;-96
2022/11/12 05:01:56;;;;;;;;;;;4.40;99.90;;;;;;5064493;28;19932;-94
2022/11/12 05:04:26;;;;;;;;;;;4.40;99.90;;;;;;5072928;28;20019;-94
2022/11/12 05:06:52;;;;;;;;;;;4.40;99.90;;;;;;5031573;28;19964;-93
2022/11/12 05:09:19;;;;;;;;;;;4.40;99.90;;;;;;5029160;28;19974;-95
2022/11/12 05:11:45;;;;;;;;;;;4.30;99.90;;;;;;5045407;28;19931;-94
2022/11/12 05:14:11;;;;;;;;;;;4.30;99.90;;;;;;5039912;28;19929;-94
2022/11/12 05:16:37;;;;;;;;;;;5.00;99.90;;;;;;5042029;28;19925;-94
2022/11/12 05:19:02;;;;;;;;;;;4.20;99.90;;;;;;5027210;28;20238;-94
2022/11/12 05:24:18;;;;;;;;;;;4.20;99.90;;;;;;5026123;28;19978;-93
2022/11/12 05:26:44;;;;;;;;;;;4.40;99.90;;;;;;5046308;28;19954;-95
2022/11/12 05:29:09;;;;;;;;;;;4.20;99.90;;;;;;5029997;28;19929;-95
2022/11/12 05:31:35;;;;;;;;;;;4.20;99.90;;;;;;5029032;28;20020;-94
2022/11/12 05:34:01;;;;;;;;;;;4.20;99.90;;;;;;5029090;28;20114;-93
2022/11/12 05:36:26;;;;;;;;;;;4.20;99.90;;;;;;5047898;28;20027;-95
2022/11/12 05:38:52;;;;;;;;;;;5.10;99.90;;;;;;5040213;28;19924;-96
2022/11/12 05:41:18;;;;;;;;;;;4.10;99.90;;;;;;5039924;28;19925;-95
2022/11/12 05:43:43;;;;;;;;;;;4.10;99.90;;;;;;5049319;28;19924;-94
2022/11/12 05:46:09;;;;;;;;;;;4.10;99.90;;;;;;5027381;28;19929;-95
2022/11/12 05:48:34;;;;;;;;;;;4.00;99.90;;;;;;5021679;28;19924;-93
2022/11/12 05:51:00;;;;;;;;;;;4.30;99.90;;;;;;5032753;28;20003;-93
2022/11/12 05:53:26;;;;;;;;;;;4.00;99.90;;;;;;5030378;28;19947;-94
2022/11/12 05:55:51;;;;;;;;;;;4.00;99.90;;;;;;5044541;28;19944;-94
2022/11/12 05:58:17;;;;;;;;;;;4.00;99.90;;;;;;5024460;28;19964;-93
2022/11/12 06:00:43;;;;;;;;;;;4.00;99.90;;;;;;5033359;28;19939;-94
2022/11/12 06:03:09;;;;;;;;;;;4.00;99.90;;;;;;5032862;28;20028;-95
2022/11/12 06:05:34;;;;;;;;;;;3.90;99.90;;;;;;5011410;28;19932;-94
2022/11/12 06:08:00;;;;;;;;;;;4.90;99.90;;;;;;5028543;28;19929;-94
2022/11/12 06:10:26;;;;;;;;;;;3.80;99.90;;;;;;5032301;28;19996;-94
2022/11/12 06:12:52;;;;;;;;;;;3.80;99.90;;;;;;5062069;28;19921;-95
2022/11/12 06:15:18;;;;;;;;;;;3.80;99.90;;;;;;5056753;28;19944;-94
2022/11/12 06:17:44;;;;;;;;;;;3.80;99.90;;;;;;5027365;28;19968;-94
2022/11/12 06:20:10;;;;;;;;;;;3.80;99.90;;;;;;5041920;28;19925;-93
2022/11/12 06:22:36;;;;;;;;;;;3.80;99.90;;;;;;5009451;28;20380;-94
2022/11/12 06:25:02;;;;;;;;;;;3.80;99.90;;;;;;5034741;28;19935;-93
2022/11/12 06:27:28;;;;;;;;;;;3.80;99.90;;;;;;5044198;28;20008;-93
2022/11/12 06:29:53;;;;;;;;;;;3.70;99.90;;;;;;5049345;28;19936;-93
2022/11/12 06:32:19;;;;;;;;;;;3.90;99.90;;;;;;5030045;28;19971;-94
2022/11/12 06:34:44;;;;;;;;;;;3.70;99.90;;;;;;5010275;28;19924;-96
2022/11/12 06:37:10;;;;;;;;;;;3.60;99.90;;;;;;5025463;28;19928;-94
2022/11/12 06:39:36;;;;;;;;;;;3.60;99.90;;;;;;5038012;28;19925;-93
2022/11/12 06:42:01;;;;;;;;;;;3.60;99.90;;;;;;5035048;28;19925;-93
2022/11/12 06:44:27;;;;;;;;;;;3.60;99.90;;;;;;5040587;28;19967;-94
2022/11/12 06:46:52;;;;;;;;;;;4.10;99.90;;;;;;5023928;28;19925;-95
2022/11/12 06:49:18;;;;;;;;;;;3.70;99.90;;;;;;5043179;28;19925;-95
2022/11/12 06:51:44;;;;;;;;;;;3.50;99.90;;;;;;5030200;28;20007;-95
2022/11/12 06:54:09;;;;;;;;;;;3.50;99.90;;;;;;5045889;28;19935;-93
2022/11/12 06:56:35;;;;;;;;;;;3.50;99.90;;;;;;5061415;28;19925;-94
2022/11/12 06:59:01;;;;;;;;;;;3.60;99.90;;;;;;5027635;28;19955;-93
2022/11/12 07:01:26;;;;;;;;;;;3.60;99.90;;;;;;5025198;28;19925;-94
2022/11/12 07:03:52;;;;;;;;;;;3.70;99.90;;;;;;5041985;28;20405;-93
2022/11/12 07:06:19;;;;;;;;;;;3.70;99.90;;;;;;5025932;28;19924;-94
2022/11/12 07:08:48;;;;;;;;;;;3.70;99.90;;;;;;5042945;28;20410;-95
2022/11/12 07:11:14;;;;;;;;;;;2.40;99.90;;;;;;5019458;28;19932;-94
2022/11/12 07:13:40;;;;;;;;;;;3.90;99.90;;;;;;5029627;28;19981;-93
2022/11/12 07:16:07;;;;;;;;;;;4.00;99.90;;;;;;5011521;28;19948;-94
2022/11/12 07:18:33;;;;;;;;;;;4.00;99.90;;;;;;5045003;28;20383;-94
2022/11/12 07:21:03;;;;;;;;;;;4.00;99.90;;;;;;5057581;28;19939;-94
2022/11/12 07:23:31;;;;;;;;;;;4.10;99.90;;;;;;5044283;28;19925;-94
2022/11/12 07:25:57;;;;;;;;;;;4.30;99.90;;;;;;5030321;28;19933;-94
2022/11/12 07:28:23;;;;;;;;;;;4.20;99.90;;;;;;5045911;28;19988;-94
2022/11/12 07:30:56;;;;;;;;;;;4.30;99.90;;;;;;5021810;28;19952;-95
2022/11/12 07:33:22;;;;;;;;;;;4.40;99.90;;;;;;5033736;28;19925;-92
2022/11/12 07:35:47;;;;;;;;;;;4.50;99.90;;;;;;5044839;28;20062;-94
2022/11/12 07:38:13;;;;;;;;;;;4.50;99.90;;;;;;5025560;28;19924;-93
2022/11/12 07:40:39;;;;;;;;;;;4.60;99.90;;;;;;5043187;28;19980;-93
2022/11/12 07:43:04;;;;;;;;;;;4.70;99.90;;;;;;5048525;28;19925;-95
2022/11/12 07:45:30;;;;;;;;;;;6.10;99.90;;;;;;5034779;28;19929;-92
2022/11/12 07:47:57;;;;;;;;;;;4.80;99.90;;;;;;5059598;28;20008;-92
2022/11/12 07:50:23;;;;;;;;;;;4.90;99.90;;;;;;5054753;28;19925;-93
2022/11/12 07:52:51;;;;;;;;;;;4.90;99.90;;;;;;5012603;28;19947;-92
2022/11/12 07:55:17;;;;;;;;;;;4.90;99.90;;;;;;5064654;28;20024;-93
2022/11/12 07:57:42;;;;;;;;;;;5.00;99.90;;;;;;5042997;28;19987;-93
2022/11/12 08:00:09;;;;;;;;;;;5.00;99.90;;;;;;5028274;28;19936;-92
2022/11/12 08:02:36;;;;;;;;;;;5.10;99.90;;;;;;5025676;28;20638;-92
2022/11/12 08:05:02;;;;;;;;;;;5.20;99.90;;;;;;5041283;28;19960;-93
2022/11/12 08:07:27;;;;;;;;;;;5.20;99.90;;;;;;5039110;28;19925;-93
2022/11/12 08:09:54;;;;;;;;;;;5.30;99.90;;;;;;5052595;28;19924;-92
2022/11/12 08:12:19;;;;;;;;;;;5.40;99.90;;;;;;5061631;28;19925;-92
2022/11/12 08:14:45;;;;;;;;;;;5.60;99.90;;;;;;5037344;28;19931;-92
2022/11/12 08:17:10;;;;;;;;;;;5.50;99.90;;;;;;5040062;28;19967;-93
2022/11/12 08:19:36;;;;;;;;;;;5.60;99.90;;;;;;5023531;28;19936;-93
2022/11/12 08:22:02;;;;;;;;;;;5.60;99.90;;;;;;5027325;28;19935;-93
2022/11/12 08:24:27;;;;;;;;;;;5.70;99.90;;;;;;5025651;28;19925;-90
2022/11/12 08:26:53;;;;;;;;;;;5.70;99.90;;;;;;5042577;28;19931;-93
2022/11/12 08:29:19;;;;;;;;;;;5.80;99.90;;;;;;5032760;28;20186;-93
2022/11/12 08:31:45;;;;;;;;;;;5.80;99.90;;;;;;5036184;28;19920;-92
2022/11/12 08:34:13;;;;;;;;;;;5.90;99.90;;;;;;5016896;28;19936;-93
2022/11/12 08:36:39;;;;;;;;;;;5.90;99.90;;;;;;5006268;28;19990;-93
2022/11/12 08:39:05;;;;;;;;;;;6.00;99.90;;;;;;5032651;28;19925;-93
2022/11/12 08:41:31;;;;;;;;;;;6.00;99.90;;;;;;5005121;28;19925;-91
2022/11/12 08:43:57;;;;;;;;;;;6.00;99.90;;;;;;5007298;28;19929;-91
2022/11/12 08:46:23;;;;;;;;;;;6.10;99.90;;;;;;5005688;28;19925;-94
2022/11/12 08:48:48;;;;;;;;;;;6.10;99.90;;;;;;5017783;28;19936;-93
2022/11/12 08:51:14;;;;;;;;;;;6.10;99.90;;;;;;4992281;28;19949;-94
2022/11/12 08:53:42;;;;;;;;;;;6.10;99.90;;;;;;4998143;28;19925;-92
2022/11/12 08:56:08;;;;;;;;;;;6.20;99.90;;;;;;5005673;28;19925;-92
2022/11/12 08:58:33;;;;;;;;;;;6.30;99.90;;;;;;5022085;28;20059;-92
2022/11/12 09:01:03;;;;;;;;;;;6.30;99.90;;;;;;5017175;28;19929;-92
2022/11/12 09:03:29;;;;;;;;;;;6.30;99.90;;;;;;5015373;28;19988;-93
2022/11/12 09:05:55;;;;;;;;;;;6.40;99.90;;;;;;4989418;28;19975;-93
2022/11/12 09:08:21;;;;;;;;;;;6.40;99.90;;;;;;4994215;28;19991;-92
2022/11/12 09:10:48;;;;;;;;;;;6.40;99.90;;;;;;5013635;28;20381;-91
2022/11/12 09:13:13;;;;;;;;;;;6.50;99.90;;;;;;5010042;28;19980;-93
2022/11/12 09:15:39;;;;;;;;;;;6.50;99.90;;;;;;5003839;28;19948;-91
2022/11/12 09:18:06;;;;;;;;;;;6.50;99.90;;;;;;5020490;28;19925;-93
2022/11/12 09:20:32;;;;;;;;;;;6.60;99.90;;;;;;5006624;28;19957;-92
2022/11/12 09:22:59;;;;;;;;;;;6.70;99.90;;;;;;5014666;28;19936;-92
2022/11/12 09:25:24;;;;;;;;;;;6.80;99.90;;;;;;5018924;28;19932;-92
2022/11/12 09:27:50;;;;;;;;;;;6.80;99.90;;;;;;5012219;28;20280;-93
2022/11/12 09:30:16;;;;;;;;;;;6.90;99.90;;;;;;5006835;28;19929;-93
2022/11/12 09:32:41;;;;;;;;;;;6.90;99.90;;;;;;5017233;28;19925;-94
2022/11/12 09:35:07;;;;;;;;;;;7.00;99.90;;;;;;5025252;28;20065;-93
2022/11/12 09:37:32;;;;;;;;;;;7.00;99.90;;;;;;5043702;28;19998;-91
2022/11/12 09:39:58;;;;;;;;;;;7.10;99.90;;;;;;5016697;28;19925;-92
2022/11/12 09:42:24;;;;;;;;;;;7.10;99.90;;;;;;5027999;28;19975;-92
2022/11/12 09:45:10;;;;;;;;;;;7.10;99.90;;;;;;5025325;28;19929;-91
2022/11/12 09:47:48;;;;;;;;;;;7.20;99.90;;;;;;5039949;28;19925;-93
2022/11/12 09:50:28;;;;;;;;;;;7.20;99.90;;;;;;5006189;28;19947;-92
2022/11/12 09:53:14;;;;;;;;;;;7.30;99.90;;;;;;5030795;28;19926;-93
2022/11/12 09:55:42;;;;;;;;;;;7.30;99.90;;;;;;5017357;28;20074;-93
2022/11/12 09:58:11;;;;;;;;;;;7.30;99.90;;;;;;5024478;28;19924;-94
2022/11/12 10:00:37;;;;;;;;;;;7.30;99.90;;;;;;5026200;28;19964;-92
2022/11/12 10:03:26;;;;;;;;;;;7.30;99.90;;;;;;5018593;28;20284;-94
2022/11/12 10:06:00;;;;;;;;;;;7.40;99.90;;;;;;5009018;28;19925;-95
2022/11/12 10:08:49;;;;;;;;;;;7.40;99.90;;;;;;5023780;28;19932;-93
2022/11/12 10:12:30;;;;;;;;;;;7.40;99.90;;;;;;5019819;28;19988;-92
2022/11/12 10:14:30;;;;;;;;;;;7.50;99.90;;;;;;5043706;28;19936;-93
2022/11/12 10:17:00;;;;;;;;;;;7.50;99.90;;;;;;5022915;28;19925;-94
2022/11/12 10:19:31;;;;;;;;;;;7.50;99.90;;;;;;5041502;28;19925;-93
2022/11/12 10:22:15;;;;;;;;;;;7.60;99.90;;;;;;5035190;28;20268;-92
2022/11/12 10:24:41;;;;;;;;;;;7.60;99.90;;;;;;5028344;28;19929;-92
2022/11/12 10:27:27;;;;;;;;;;;7.60;99.90;;;;;;5040563;28;19936;-93
2022/11/12 10:29:53;;;;;;;;;;;7.60;99.90;;;;;;5009411;28;19925;-92
2022/11/12 10:32:18;;;;;;;;;;;7.60;99.90;;;;;;5032676;28;19926;-94
2022/11/12 10:34:44;;;;;;;;;;;7.60;99.90;;;;;;5042812;28;19932;-93
2022/11/12 10:37:16;;;;;;;;;;;7.60;99.90;;;;;;5039155;28;19925;-92
2022/11/12 10:39:43;;;;;;;;;;;7.70;99.90;;;;;;5042515;28;19924;-93
2022/11/12 10:42:10;;;;;;;;;;;7.70;99.90;;;;;;5025362;28;19925;-93
2022/11/12 10:44:36;;;;;;;;;;;7.70;99.90;;;;;;5011670;28;19968;-94
2022/11/12 10:47:21;;;;;;;;;;;7.70;99.90;;;;;;5053001;28;19921;-92
2022/11/12 10:50:02;;;;;;;;;;;7.70;99.90;;;;;;5038052;28;19927;-93
2022/11/12 10:52:28;;;;;;;;;;;7.70;99.90;;;;;;5020196;28;19955;-93
2022/11/12 10:55:02;;;;;;;;;;;8.20;99.90;;;;;;5027405;28;20311;-90
2022/11/12 10:57:28;;;;;;;;;;;7.80;99.90;;;;;;5022603;28;20380;-94
2022/11/12 11:00:05;;;;;;;;;;;7.80;99.90;;;;;;5034851;28;19925;-94
2022/11/12 11:02:31;;;;;;;;;;;7.80;99.90;;;;;;5040647;28;20023;-93
2022/11/12 11:04:56;;;;;;;;;;;7.80;99.90;;;;;;5038471;28;20308;-90
2022/11/12 11:07:23;;;;;;;;;;;7.80;99.90;;;;;;5025558;28;19947;-93
2022/11/12 11:09:54;;;;;;;;;;;7.80;99.90;;;;;;5039417;28;19925;-92
2022/11/12 11:12:25;;;;;;;;;;;7.80;99.90;;;;;;5037177;28;19925;-92
2022/11/12 11:15:23;;;;;;;;;;;7.90;99.90;;;;;;5017995;28;19933;-91
2022/11/12 11:17:49;;;;;;;;;;;7.90;99.90;;;;;;4996185;28;19925;-92
2022/11/12 11:20:20;;;;;;;;;;;8.00;99.90;;;;;;5022214;28;19956;-93
2022/11/12 11:22:49;;;;;;;;;;;8.00;99.90;;;;;;5020579;28;19964;-90
2022/11/12 11:25:17;;;;;;;;;;;8.00;99.90;;;;;;5043227;28;19940;-91
2022/11/12 11:27:43;;;;;;;;;;;8.10;99.90;;;;;;5028788;28;19992;-90
2022/11/12 11:30:19;;;;;;;;;;;8.10;99.90;;;;;;5029193;28;19924;-92
2022/11/12 11:33:01;;;;;;;;;;;8.10;99.90;;;;;;5044729;28;19935;-91
2022/11/12 11:35:35;;;;;;;;;;;8.10;99.90;;;;;;5043172;28;19925;-92
2022/11/12 11:38:21;;;;;;;;;;;8.10;99.90;;;;;;5017976;28;19985;-92
2022/11/12 11:40:52;;;;;;;;;;;8.20;99.90;;;;;;5052635;28;19975;-94
2022/11/12 11:43:36;;;;;;;;;;;8.20;99.90;;;;;;5036863;28;19972;-89
2022/11/12 11:46:02;;;;;;;;;;;8.30;99.90;;;;;;5036445;28;20003;-90
2022/11/12 11:48:37;;;;;;;;;;;8.40;99.90;;;;;;5025259;28;19932;-93
2022/11/12 11:51:15;;;;;;;;;;;8.40;99.90;;;;;;5046474;28;20016;-96
2022/11/12 11:53:46;;;;;;;;;;;8.50;99.90;;;;;;5031880;28;19972;-96
2022/11/12 11:56:32;;;;;;;;;;;8.50;99.90;;;;;;5046563;28;19955;-95
2022/11/12 11:59:17;;;;;;;;;;;8.50;99.90;;;;;;5040047;28;19921;-91
2022/11/12 12:02:02;;;;;;;;;;;8.50;99.90;;;;;;5042748;28;19920;-89
2022/11/12 12:04:37;;;;;;;;;;;8.60;99.90;;;;;;5022687;28;19947;-96
2022/11/12 12:07:02;;;;;;;;;;;8.60;99.90;;;;;;5033176;28;19956;-91
2022/11/12 12:09:43;;;;;;;;;;;8.70;99.90;;;;;;5033693;28;19952;-95
2022/11/12 12:12:21;;;;;;;;;;;8.70;99.90;;;;;;5027050;28;19924;-93
2022/11/12 12:14:47;;;;;;;;;;;8.80;99.90;;;;;;5045550;28;19925;-91
2022/11/12 12:17:31;;;;;;;;;;;8.80;99.90;;;;;;5038549;28;19929;-91
2022/11/12 12:20:00;;;;;;;;;;;8.80;99.90;;;;;;5039217;28;20004;-91
2022/11/12 12:22:38;;;;;;;;;;;8.90;99.90;;;;;;5016589;28;20016;-92
2022/11/12 12:25:09;;;;;;;;;;;8.90;99.90;;;;;;5041042;28;20305;-91
2022/11/12 12:27:37;;;;;;;;;;;9.00;99.90;;;;;;5046571;28;19928;-91
2022/11/12 12:30:03;;;;;;;;;;;9.10;99.90;;;;;;5039887;28;19925;-91
2022/11/12 12:32:37;;;;;;;;;;;9.10;99.90;;;;;;5034869;28;19924;-91
2022/11/12 12:35:03;;;;;;;;;;;9.20;99.90;;;;;;5022972;28;19955;-91
2022/11/12 12:37:52;;;;;;;;;;;9.20;99.90;;;;;;5019243;28;19921;-92
2022/11/12 12:40:41;;;;;;;;;;;9.20;99.90;;;;;;5070770;28;19921;-91
2022/11/12 12:43:13;;;;;;;;;;;9.30;99.90;;;;;;5052269;28;19928;-90
2022/11/12 12:45:40;;;;;;;;;;;9.30;99.90;;;;;;5036495;28;19976;-92
2022/11/12 12:48:12;;;;;;;;;;;9.40;99.90;;;;;;5053814;28;19932;-90
2022/11/12 12:50:39;;;;;;;;;;;9.40;99.90;;;;;;5051657;28;19921;-91
2022/11/12 12:53:15;;;;;;;;;;;9.40;99.90;;;;;;5037377;28;19933;-88
2022/11/12 12:55:48;;;;;;;;;;;9.30;99.90;;;;;;5039499;28;19929;-91
2022/11/12 12:58:19;;;;;;;;;;;9.30;99.90;;;;;;5042603;28;19932;-91
2022/11/12 13:00:47;;;;;;;;;;;9.30;99.90;;;;;;5044531;28;19925;-91
2022/11/12 13:03:32;;;;;;;;;;;9.30;99.90;;;;;;5024040;28;19983;-92
2022/11/12 13:06:05;;;;;;;;;;;9.30;99.90;;;;;;5047377;28;19929;-91
2022/11/12 13:08:34;;;;;;;;;;;9.30;99.90;;;;;;5022090;28;19924;-91
2022/11/12 13:11:00;;;;;;;;;;;9.20;99.90;;;;;;5040054;28;20016;-92
2022/11/12 13:13:27;;;;;;;;;;;9.20;99.90;;;;;;5046388;28;20067;-90
2022/11/12 13:15:57;;;;;;;;;;;9.20;99.90;;;;;;5046117;28;19999;-91
2022/11/12 13:18:41;;;;;;;;;;;9.20;99.90;;;;;;5030274;28;19925;-91
2022/11/12 13:21:11;;;;;;;;;;;9.20;99.90;;;;;;5010601;28;19925;-92
2022/11/12 13:26:46;;;;;;;;;;;9.20;99.90;;;;;;5046515;28;20000;-91
2022/11/12 13:29:38;;;;;;;;;;;9.20;99.90;;;;;;5022230;28;19948;-92
2022/11/12 13:32:22;;;;;;;;;;;9.20;99.90;;;;;;5016960;28;19936;-93
2022/11/12 13:34:48;;;;;;;;;;;9.20;99.90;;;;;;5046007;28;19979;-92
2022/11/12 13:37:18;;;;;;;;;;;9.30;99.90;;;;;;5028251;28;19925;-91
2022/11/12 13:39:44;;;;;;;;;;;9.40;99.90;;;;;;5026472;28;19936;-92
2022/11/12 13:44:59;;;;;;;;;;;9.40;99.90;;;;;;5042583;28;19929;-91
2022/11/12 13:47:28;;;;;;;;;;;9.50;99.90;;;;;;5034305;28;19932;-92
2022/11/12 13:49:54;;;;;;;;;;;9.50;99.90;;;;;;5025681;28;19940;-92
2022/11/12 13:52:20;;;;;;;;;;;9.50;99.90;;;;;;5025869;28;20006;-91
2022/11/12 13:54:46;;;;;;;;;;;9.50;99.90;;;;;;5016692;28;19947;-92
2022/11/12 13:57:32;;;;;;;;;;;9.40;99.90;;;;;;5045849;28;20372;-92
2022/11/12 14:00:31;;;;;;;;;;;9.40;99.90;;;;;;5038380;28;19924;-92
2022/11/12 14:02:58;;;;;;;;;;;9.40;99.90;;;;;;5010812;28;20398;-92
2022/11/12 14:05:26;;;;;;;;;;;9.40;99.90;;;;;;5024069;28;19957;-91
2022/11/12 14:08:04;;;;;;;;;;;9.40;99.90;;;;;;5029096;28;20309;-93
2022/11/12 14:10:36;;;;;;;;;;;9.40;99.90;;;;;;5030734;28;19963;-91
2022/11/12 14:13:11;;;;;;;;;;;9.40;99.90;;;;;;5031849;28;19979;-91
2022/11/12 14:15:36;;;;;;;;;;;9.40;99.90;;;;;;5039101;28;20012;-90
2022/11/12 14:18:11;;;;;;;;;;;9.30;99.90;;;;;;5043932;28;19925;-90
2022/11/12 14:20:40;;;;;;;;;;;9.40;99.90;;;;;;5032954;28;19953;-93
2022/11/12 14:23:16;;;;;;;;;;;9.40;99.90;;;;;;5021440;28;19925;-91
2022/11/12 14:25:49;;;;;;;;;;;9.40;99.90;;;;;;5033712;28;19929;-93
2022/11/12 14:28:31;;;;;;;;;;;9.40;99.90;;;;;;5046462;28;19972;-92
2022/11/12 14:30:58;;;;;;;;;;;9.40;99.90;;;;;;5025156;28;19928;-89
2022/11/12 14:33:27;;;;;;;;;;;9.50;99.90;;;;;;5044737;28;19979;-91
2022/11/12 14:35:53;;;;;;;;;;;9.40;99.90;;;;;;5025741;28;19925;-90
2022/11/12 14:38:25;;;;;;;;;;;9.40;99.90;;;;;;5050739;28;19925;-90
2022/11/12 14:40:55;;;;;;;;;;;9.50;99.90;;;;;;5020423;28;19936;-92
2022/11/12 14:43:32;;;;;;;;;;;9.40;99.90;;;;;;5026561;28;19949;-92
2022/11/12 14:45:59;;;;;;;;;;;9.50;99.90;;;;;;5044554;28;19935;-91
2022/11/12 14:48:25;;;;;;;;;;;9.40;99.90;;;;;;5043041;28;19929;-91
2022/11/12 14:50:54;;;;;;;;;;;9.40;99.90;;;;;;5045079;28;20007;-91
2022/11/12 14:53:22;;;;;;;;;;;9.40;99.90;;;;;;5045495;28;19979;-91
2022/11/12 14:55:49;;;;;;;;;;;9.40;99.90;;;;;;5030044;28;19955;-90
2022/11/12 14:58:16;;;;;;;;;;;9.40;99.90;;;;;;5047165;28;19984;-91
2022/11/12 15:00:43;;;;;;;;;;;9.40;99.90;;;;;;5022718;28;19951;-92
2022/11/12 15:03:11;;;;;;;;;;;9.40;99.90;;;;;;5042772;28;19924;-91
2022/11/12 15:05:51;;;;;;;;;;;9.40;99.90;;;;;;5038827;28;19996;-91
2022/11/12 15:08:26;;;;;;;;;;;9.30;99.90;;;;;;5037844;28;19975;-91
2022/11/12 15:10:52;;;;;;;;;;;9.30;99.90;;;;;;5036210;28;20295;-91